sensor_id;sensor_type;location;lat;lon;timestamp;P1;durP1;ratioP1;P2;durP2;ratioP2
49828;SDS011;35723;51.194;5.112;2022-08-03T00:01:31;13.32;;;3.03;;
49828;SDS011;35723;51.194;5.112;2022-08-03T00:03:57;12.10;;;3.28;;
49828;SDS011;35723;51.194;5.112;2022-08-03T00:06:23;10.15;;;3.13;;
49828;SDS011;35723;51.194;5.112;2022-08-03T00:08:48;13.48;;;3.55;;
49828;SDS011;35723;51.194;5.112;2022-08-03T00:11:14;12.75;;;2.90;;
49828;SDS011;35723;51.194;5.112;2022-08-03T00:13:39;13.38;;;3.47;;
49828;SDS011;35723;51.194;5.112;2022-08-03T00:16:05;15.32;;;3.42;;
49828;SDS011;35723;51.194;5.112;2022-08-03T00:18:31;15.05;;;3.50;;
49828;SDS011;35723;51.194;5.112;2022-08-03T00:20:56;13.52;;;3.53;;
49828;SDS011;35723;51.194;5.112;2022-08-03T00:23:22;13.98;;;3.38;;
49828;SDS011;35723;51.194;5.112;2022-08-03T00:25:48;11.43;;;3.22;;
49828;SDS011;35723;51.194;5.112;2022-08-03T00:28:13;13.75;;;3.75;;
49828;SDS011;35723;51.194;5.112;2022-08-03T00:30:39;15.45;;;3.80;;
49828;SDS011;35723;51.194;5.112;2022-08-03T00:33:05;12.25;;;3.40;;
49828;SDS011;35723;51.194;5.112;2022-08-03T00:35:30;13.93;;;3.20;;
49828;SDS011;35723;51.194;5.112;2022-08-03T00:37:56;13.45;;;3.63;;
49828;SDS011;35723;51.194;5.112;2022-08-03T00:40:22;13.38;;;3.45;;
49828;SDS011;35723;51.194;5.112;2022-08-03T00:42:48;13.75;;;2.92;;
49828;SDS011;35723;51.194;5.112;2022-08-03T00:45:31;13.63;;;3.05;;
49828;SDS011;35723;51.194;5.112;2022-08-03T00:47:58;11.40;;;3.42;;
49828;SDS011;35723;51.194;5.112;2022-08-03T00:50:25;12.75;;;3.30;;
49828;SDS011;35723;51.194;5.112;2022-08-03T00:52:52;13.38;;;3.53;;
49828;SDS011;35723;51.194;5.112;2022-08-03T00:55:19;15.32;;;3.30;;
49828;SDS011;35723;51.194;5.112;2022-08-03T00:57:46;14.48;;;3.80;;
49828;SDS011;35723;51.194;5.112;2022-08-03T01:00:13;10.88;;;3.40;;
49828;SDS011;35723;51.194;5.112;2022-08-03T01:02:41;10.23;;;3.10;;
49828;SDS011;35723;51.194;5.112;2022-08-03T01:05:07;13.90;;;3.20;;
49828;SDS011;35723;51.194;5.112;2022-08-03T01:10:46;11.97;;;3.33;;
49828;SDS011;35723;51.194;5.112;2022-08-03T01:13:37;17.10;;;3.95;;
49828;SDS011;35723;51.194;5.112;2022-08-03T01:27:40;17.50;;;4.00;;
49828;SDS011;35723;51.194;5.112;2022-08-03T01:30:34;12.20;;;3.47;;
49828;SDS011;35723;51.194;5.112;2022-08-03T01:33:03;14.98;;;3.97;;
49828;SDS011;35723;51.194;5.112;2022-08-03T01:35:35;17.87;;;4.43;;
49828;SDS011;35723;51.194;5.112;2022-08-03T01:38:10;12.17;;;3.83;;
49828;SDS011;35723;51.194;5.112;2022-08-03T01:40:48;12.38;;;3.63;;
49828;SDS011;35723;51.194;5.112;2022-08-03T01:43:18;14.68;;;3.95;;
49828;SDS011;35723;51.194;5.112;2022-08-03T01:45:48;12.35;;;4.15;;
49828;SDS011;35723;51.194;5.112;2022-08-03T01:48:16;16.35;;;3.83;;
49828;SDS011;35723;51.194;5.112;2022-08-03T01:50:43;13.00;;;3.50;;
49828;SDS011;35723;51.194;5.112;2022-08-03T01:53:12;14.27;;;3.85;;
49828;SDS011;35723;51.194;5.112;2022-08-03T01:55:39;14.15;;;3.60;;
49828;SDS011;35723;51.194;5.112;2022-08-03T01:58:07;11.32;;;3.78;;
49828;SDS011;35723;51.194;5.112;2022-08-03T02:00:34;13.10;;;4.00;;
49828;SDS011;35723;51.194;5.112;2022-08-03T02:03:01;13.93;;;3.88;;
49828;SDS011;35723;51.194;5.112;2022-08-03T02:05:30;13.27;;;3.63;;
49828;SDS011;35723;51.194;5.112;2022-08-03T02:07:56;11.95;;;3.55;;
49828;SDS011;35723;51.194;5.112;2022-08-03T02:10:23;14.60;;;3.40;;
49828;SDS011;35723;51.194;5.112;2022-08-03T02:12:51;12.45;;;3.58;;
49828;SDS011;35723;51.194;5.112;2022-08-03T02:15:18;15.82;;;3.60;;
49828;SDS011;35723;51.194;5.112;2022-08-03T02:17:46;11.90;;;3.55;;
49828;SDS011;35723;51.194;5.112;2022-08-03T02:20:12;17.42;;;3.65;;
49828;SDS011;35723;51.194;5.112;2022-08-03T02:22:40;12.98;;;3.78;;
49828;SDS011;35723;51.194;5.112;2022-08-03T02:25:08;14.98;;;3.40;;
49828;SDS011;35723;51.194;5.112;2022-08-03T02:27:35;11.10;;;3.00;;
49828;SDS011;35723;51.194;5.112;2022-08-03T02:30:04;9.52;;;3.42;;
49828;SDS011;35723;51.194;5.112;2022-08-03T02:32:34;12.20;;;3.28;;
49828;SDS011;35723;51.194;5.112;2022-08-03T02:35:02;13.40;;;3.72;;
49828;SDS011;35723;51.194;5.112;2022-08-03T02:37:30;12.38;;;3.20;;
49828;SDS011;35723;51.194;5.112;2022-08-03T02:40:02;13.05;;;3.80;;
49828;SDS011;35723;51.194;5.112;2022-08-03T02:42:31;11.02;;;3.35;;
49828;SDS011;35723;51.194;5.112;2022-08-03T02:44:58;15.07;;;4.00;;
49828;SDS011;35723;51.194;5.112;2022-08-03T02:47:27;15.82;;;3.60;;
49828;SDS011;35723;51.194;5.112;2022-08-03T02:49:54;12.65;;;3.42;;
49828;SDS011;35723;51.194;5.112;2022-08-03T02:52:23;9.75;;;3.25;;
49828;SDS011;35723;51.194;5.112;2022-08-03T02:54:53;14.25;;;3.28;;
49828;SDS011;35723;51.194;5.112;2022-08-03T02:57:21;13.57;;;3.38;;
49828;SDS011;35723;51.194;5.112;2022-08-03T02:59:48;12.70;;;3.38;;
49828;SDS011;35723;51.194;5.112;2022-08-03T03:02:16;14.23;;;3.40;;
49828;SDS011;35723;51.194;5.112;2022-08-03T03:04:43;15.63;;;3.67;;
49828;SDS011;35723;51.194;5.112;2022-08-03T03:07:11;17.73;;;3.80;;
49828;SDS011;35723;51.194;5.112;2022-08-03T03:09:38;13.55;;;3.28;;
49828;SDS011;35723;51.194;5.112;2022-08-03T03:12:05;15.43;;;3.85;;
49828;SDS011;35723;51.194;5.112;2022-08-03T03:14:33;18.48;;;3.67;;
49828;SDS011;35723;51.194;5.112;2022-08-03T03:17:00;12.15;;;3.50;;
49828;SDS011;35723;51.194;5.112;2022-08-03T03:19:27;13.48;;;3.30;;
49828;SDS011;35723;51.194;5.112;2022-08-03T03:21:56;12.73;;;3.53;;
49828;SDS011;35723;51.194;5.112;2022-08-03T03:24:28;12.65;;;3.75;;
49828;SDS011;35723;51.194;5.112;2022-08-03T03:26:54;15.77;;;3.35;;
49828;SDS011;35723;51.194;5.112;2022-08-03T03:29:20;16.08;;;3.40;;
49828;SDS011;35723;51.194;5.112;2022-08-03T03:31:46;13.35;;;3.47;;
49828;SDS011;35723;51.194;5.112;2022-08-03T03:34:12;13.27;;;3.60;;
49828;SDS011;35723;51.194;5.112;2022-08-03T03:36:38;12.73;;;3.40;;
49828;SDS011;35723;51.194;5.112;2022-08-03T03:39:04;13.32;;;3.60;;
49828;SDS011;35723;51.194;5.112;2022-08-03T03:41:30;13.32;;;3.15;;
49828;SDS011;35723;51.194;5.112;2022-08-03T03:43:56;11.90;;;3.70;;
49828;SDS011;35723;51.194;5.112;2022-08-03T03:46:22;14.55;;;3.35;;
49828;SDS011;35723;51.194;5.112;2022-08-03T03:48:47;13.75;;;3.30;;
49828;SDS011;35723;51.194;5.112;2022-08-03T03:51:13;13.18;;;3.63;;
49828;SDS011;35723;51.194;5.112;2022-08-03T03:53:39;13.85;;;3.53;;
49828;SDS011;35723;51.194;5.112;2022-08-03T03:56:06;12.20;;;3.47;;
49828;SDS011;35723;51.194;5.112;2022-08-03T03:58:31;16.85;;;3.83;;
49828;SDS011;35723;51.194;5.112;2022-08-03T04:00:57;12.70;;;3.85;;
49828;SDS011;35723;51.194;5.112;2022-08-03T04:03:23;15.88;;;4.00;;
49828;SDS011;35723;51.194;5.112;2022-08-03T04:05:49;14.70;;;3.90;;
49828;SDS011;35723;51.194;5.112;2022-08-03T04:08:33;13.85;;;3.90;;
49828;SDS011;35723;51.194;5.112;2022-08-03T04:11:37;18.50;;;4.55;;
49828;SDS011;35723;51.194;5.112;2022-08-03T04:14:28;19.85;;;4.43;;
49828;SDS011;35723;51.194;5.112;2022-08-03T04:17:02;16.08;;;4.00;;
49828;SDS011;35723;51.194;5.112;2022-08-03T04:19:33;14.30;;;3.65;;
49828;SDS011;35723;51.194;5.112;2022-08-03T04:22:03;13.90;;;3.70;;
49828;SDS011;35723;51.194;5.112;2022-08-03T04:24:37;19.33;;;3.90;;
49828;SDS011;35723;51.194;5.112;2022-08-03T04:27:17;15.70;;;3.63;;
49828;SDS011;35723;51.194;5.112;2022-08-03T04:29:48;15.38;;;3.80;;
49828;SDS011;35723;51.194;5.112;2022-08-03T04:32:17;12.90;;;3.55;;
49828;SDS011;35723;51.194;5.112;2022-08-03T04:34:44;10.18;;;3.67;;
49828;SDS011;35723;51.194;5.112;2022-08-03T04:37:12;10.80;;;3.45;;
49828;SDS011;35723;51.194;5.112;2022-08-03T04:39:42;15.00;;;3.60;;
49828;SDS011;35723;51.194;5.112;2022-08-03T04:42:11;13.93;;;3.63;;
49828;SDS011;35723;51.194;5.112;2022-08-03T04:44:39;16.67;;;3.50;;
49828;SDS011;35723;51.194;5.112;2022-08-03T04:47:08;14.05;;;3.78;;
49828;SDS011;35723;51.194;5.112;2022-08-03T04:49:34;12.02;;;3.55;;
49828;SDS011;35723;51.194;5.112;2022-08-03T04:52:02;13.82;;;3.70;;
49828;SDS011;35723;51.194;5.112;2022-08-03T04:54:29;14.05;;;3.50;;
49828;SDS011;35723;51.194;5.112;2022-08-03T04:56:55;13.45;;;3.20;;
49828;SDS011;35723;51.194;5.112;2022-08-03T04:59:20;16.30;;;3.97;;
49828;SDS011;35723;51.194;5.112;2022-08-03T05:01:46;13.88;;;3.50;;
49828;SDS011;35723;51.194;5.112;2022-08-03T05:04:12;13.98;;;3.55;;
49828;SDS011;35723;51.194;5.112;2022-08-03T05:06:38;15.38;;;3.78;;
49828;SDS011;35723;51.194;5.112;2022-08-03T05:09:03;11.52;;;3.17;;
49828;SDS011;35723;51.194;5.112;2022-08-03T05:11:29;14.73;;;3.67;;
49828;SDS011;35723;51.194;5.112;2022-08-03T05:13:55;13.27;;;3.47;;
49828;SDS011;35723;51.194;5.112;2022-08-03T05:16:21;15.15;;;3.35;;
49828;SDS011;35723;51.194;5.112;2022-08-03T05:18:46;16.00;;;3.47;;
49828;SDS011;35723;51.194;5.112;2022-08-03T05:21:12;17.40;;;3.80;;
49828;SDS011;35723;51.194;5.112;2022-08-03T05:23:38;17.25;;;3.53;;
49828;SDS011;35723;51.194;5.112;2022-08-03T05:26:05;12.65;;;3.50;;
49828;SDS011;35723;51.194;5.112;2022-08-03T05:28:31;14.93;;;3.50;;
49828;SDS011;35723;51.194;5.112;2022-08-03T05:30:56;13.35;;;3.83;;
49828;SDS011;35723;51.194;5.112;2022-08-03T05:33:22;14.40;;;3.13;;
49828;SDS011;35723;51.194;5.112;2022-08-03T05:35:47;10.75;;;3.40;;
49828;SDS011;35723;51.194;5.112;2022-08-03T05:38:13;11.00;;;3.40;;
49828;SDS011;35723;51.194;5.112;2022-08-03T05:40:39;17.05;;;3.60;;
49828;SDS011;35723;51.194;5.112;2022-08-03T05:43:04;13.00;;;3.55;;
49828;SDS011;35723;51.194;5.112;2022-08-03T05:45:30;12.73;;;3.10;;
49828;SDS011;35723;51.194;5.112;2022-08-03T05:47:55;14.07;;;3.30;;
49828;SDS011;35723;51.194;5.112;2022-08-03T05:50:21;12.75;;;3.30;;
49828;SDS011;35723;51.194;5.112;2022-08-03T05:52:47;13.10;;;3.05;;
49828;SDS011;35723;51.194;5.112;2022-08-03T05:55:13;10.45;;;3.10;;
49828;SDS011;35723;51.194;5.112;2022-08-03T05:57:38;13.27;;;3.13;;
49828;SDS011;35723;51.194;5.112;2022-08-03T06:00:06;13.10;;;3.72;;
49828;SDS011;35723;51.194;5.112;2022-08-03T06:02:33;13.98;;;3.20;;
49828;SDS011;35723;51.194;5.112;2022-08-03T06:04:59;17.33;;;3.35;;
49828;SDS011;35723;51.194;5.112;2022-08-03T06:07:25;14.85;;;3.15;;
49828;SDS011;35723;51.194;5.112;2022-08-03T06:09:50;13.45;;;3.33;;
49828;SDS011;35723;51.194;5.112;2022-08-03T06:12:16;14.95;;;3.10;;
49828;SDS011;35723;51.194;5.112;2022-08-03T06:14:42;15.30;;;3.10;;
49828;SDS011;35723;51.194;5.112;2022-08-03T06:17:07;15.63;;;2.63;;
49828;SDS011;35723;51.194;5.112;2022-08-03T06:19:33;15.02;;;2.60;;
49828;SDS011;35723;51.194;5.112;2022-08-03T06:21:59;11.02;;;2.67;;
49828;SDS011;35723;51.194;5.112;2022-08-03T06:24:24;15.57;;;2.95;;
49828;SDS011;35723;51.194;5.112;2022-08-03T06:26:50;13.70;;;3.00;;
49828;SDS011;35723;51.194;5.112;2022-08-03T06:29:15;13.65;;;2.88;;
49828;SDS011;35723;51.194;5.112;2022-08-03T06:31:41;12.68;;;2.85;;
49828;SDS011;35723;51.194;5.112;2022-08-03T06:34:07;12.50;;;2.75;;
49828;SDS011;35723;51.194;5.112;2022-08-03T06:36:32;12.15;;;2.90;;
49828;SDS011;35723;51.194;5.112;2022-08-03T06:38:58;11.25;;;2.55;;
49828;SDS011;35723;51.194;5.112;2022-08-03T06:41:25;16.92;;;3.10;;
49828;SDS011;35723;51.194;5.112;2022-08-03T06:43:51;12.90;;;2.60;;
49828;SDS011;35723;51.194;5.112;2022-08-03T06:46:16;16.70;;;2.70;;
49828;SDS011;35723;51.194;5.112;2022-08-03T06:48:42;14.00;;;2.95;;
49828;SDS011;35723;51.194;5.112;2022-08-03T06:51:08;17.42;;;2.90;;
49828;SDS011;35723;51.194;5.112;2022-08-03T06:53:34;11.73;;;2.75;;
49828;SDS011;35723;51.194;5.112;2022-08-03T06:56:00;16.75;;;3.15;;
49828;SDS011;35723;51.194;5.112;2022-08-03T06:58:27;14.38;;;2.70;;
49828;SDS011;35723;51.194;5.112;2022-08-03T07:00:52;12.45;;;2.40;;
49828;SDS011;35723;51.194;5.112;2022-08-03T07:03:18;14.52;;;2.20;;
49828;SDS011;35723;51.194;5.112;2022-08-03T07:05:43;10.93;;;2.45;;
49828;SDS011;35723;51.194;5.112;2022-08-03T07:08:12;17.33;;;3.00;;
49828;SDS011;35723;51.194;5.112;2022-08-03T07:10:38;14.88;;;2.40;;
49828;SDS011;35723;51.194;5.112;2022-08-03T07:13:04;16.45;;;2.45;;
49828;SDS011;35723;51.194;5.112;2022-08-03T07:15:30;17.63;;;2.97;;
49828;SDS011;35723;51.194;5.112;2022-08-03T07:17:56;9.82;;;2.40;;
49828;SDS011;35723;51.194;5.112;2022-08-03T07:20:22;10.35;;;2.30;;
49828;SDS011;35723;51.194;5.112;2022-08-03T07:22:47;21.30;;;2.72;;
49828;SDS011;35723;51.194;5.112;2022-08-03T07:25:13;17.70;;;2.65;;
49828;SDS011;35723;51.194;5.112;2022-08-03T07:27:43;14.82;;;2.38;;
49828;SDS011;35723;51.194;5.112;2022-08-03T07:30:09;11.57;;;2.40;;
49828;SDS011;35723;51.194;5.112;2022-08-03T07:32:35;13.00;;;2.58;;
49828;SDS011;35723;51.194;5.112;2022-08-03T07:35:02;14.57;;;2.33;;
49828;SDS011;35723;51.194;5.112;2022-08-03T07:37:29;17.42;;;3.33;;
49828;SDS011;35723;51.194;5.112;2022-08-03T07:39:55;13.30;;;2.58;;
49828;SDS011;35723;51.194;5.112;2022-08-03T07:42:21;14.07;;;2.30;;
49828;SDS011;35723;51.194;5.112;2022-08-03T07:44:47;14.25;;;2.53;;
49828;SDS011;35723;51.194;5.112;2022-08-03T07:47:17;13.45;;;2.20;;
49828;SDS011;35723;51.194;5.112;2022-08-03T07:49:44;14.75;;;2.17;;
49828;SDS011;35723;51.194;5.112;2022-08-03T07:52:09;14.60;;;2.20;;
49828;SDS011;35723;51.194;5.112;2022-08-03T07:54:53;17.92;;;2.60;;
49828;SDS011;35723;51.194;5.112;2022-08-03T07:57:19;17.17;;;2.78;;
49828;SDS011;35723;51.194;5.112;2022-08-03T07:59:45;23.92;;;2.63;;
49828;SDS011;35723;51.194;5.112;2022-08-03T08:02:11;17.73;;;2.47;;
49828;SDS011;35723;51.194;5.112;2022-08-03T08:04:38;17.17;;;2.80;;
49828;SDS011;35723;51.194;5.112;2022-08-03T08:07:03;16.17;;;2.58;;
49828;SDS011;35723;51.194;5.112;2022-08-03T08:09:29;16.42;;;2.47;;
49828;SDS011;35723;51.194;5.112;2022-08-03T08:11:55;17.15;;;2.42;;
49828;SDS011;35723;51.194;5.112;2022-08-03T08:14:20;17.45;;;2.55;;
49828;SDS011;35723;51.194;5.112;2022-08-03T08:16:46;17.85;;;2.55;;
49828;SDS011;35723;51.194;5.112;2022-08-03T08:19:13;16.25;;;2.58;;
49828;SDS011;35723;51.194;5.112;2022-08-03T08:21:40;14.20;;;2.47;;
49828;SDS011;35723;51.194;5.112;2022-08-03T08:24:06;13.68;;;2.35;;
49828;SDS011;35723;51.194;5.112;2022-08-03T08:26:32;16.23;;;2.53;;
49828;SDS011;35723;51.194;5.112;2022-08-03T08:28:58;11.60;;;2.70;;
49828;SDS011;35723;51.194;5.112;2022-08-03T08:31:23;15.32;;;2.50;;
49828;SDS011;35723;51.194;5.112;2022-08-03T08:33:49;13.15;;;2.33;;
49828;SDS011;35723;51.194;5.112;2022-08-03T08:36:14;17.98;;;2.65;;
49828;SDS011;35723;51.194;5.112;2022-08-03T08:38:41;17.27;;;2.80;;
49828;SDS011;35723;51.194;5.112;2022-08-03T08:41:09;21.95;;;2.80;;
49828;SDS011;35723;51.194;5.112;2022-08-03T08:43:36;17.48;;;2.50;;
49828;SDS011;35723;51.194;5.112;2022-08-03T08:46:02;14.32;;;2.20;;
49828;SDS011;35723;51.194;5.112;2022-08-03T08:48:32;16.20;;;2.50;;
49828;SDS011;35723;51.194;5.112;2022-08-03T08:50:59;22.65;;;2.58;;
49828;SDS011;35723;51.194;5.112;2022-08-03T08:53:26;16.00;;;1.95;;
49828;SDS011;35723;51.194;5.112;2022-08-03T08:55:54;16.13;;;2.58;;
49828;SDS011;35723;51.194;5.112;2022-08-03T08:58:24;16.75;;;2.42;;
49828;SDS011;35723;51.194;5.112;2022-08-03T09:00:52;17.92;;;2.30;;
49828;SDS011;35723;51.194;5.112;2022-08-03T09:03:18;13.55;;;2.58;;
49828;SDS011;35723;51.194;5.112;2022-08-03T09:05:44;20.10;;;2.72;;
49828;SDS011;35723;51.194;5.112;2022-08-03T09:08:10;17.08;;;2.60;;
49828;SDS011;35723;51.194;5.112;2022-08-03T09:10:36;13.82;;;1.98;;
49828;SDS011;35723;51.194;5.112;2022-08-03T09:13:02;22.60;;;2.85;;
49828;SDS011;35723;51.194;5.112;2022-08-03T09:15:28;18.02;;;2.47;;
49828;SDS011;35723;51.194;5.112;2022-08-03T09:17:57;12.40;;;2.42;;
49828;SDS011;35723;51.194;5.112;2022-08-03T09:20:24;15.32;;;2.35;;
49828;SDS011;35723;51.194;5.112;2022-08-03T09:25:28;16.95;;;2.63;;
49828;SDS011;35723;51.194;5.112;2022-08-03T09:27:54;19.17;;;2.38;;
49828;SDS011;35723;51.194;5.112;2022-08-03T09:30:32;22.83;;;2.95;;
49828;SDS011;35723;51.194;5.112;2022-08-03T09:33:06;19.00;;;2.63;;
49828;SDS011;35723;51.194;5.112;2022-08-03T09:35:38;14.13;;;2.30;;
49828;SDS011;35723;51.194;5.112;2022-08-03T09:40:39;18.33;;;2.38;;
49828;SDS011;35723;51.194;5.112;2022-08-03T09:43:05;19.15;;;2.97;;
49828;SDS011;35723;51.194;5.112;2022-08-03T09:45:32;15.00;;;2.53;;
49828;SDS011;35723;51.194;5.112;2022-08-03T09:48:18;20.17;;;2.50;;
49828;SDS011;35723;51.194;5.112;2022-08-03T09:50:52;20.48;;;2.40;;
49828;SDS011;35723;51.194;5.112;2022-08-03T09:53:19;14.10;;;2.40;;
49828;SDS011;35723;51.194;5.112;2022-08-03T09:58:27;12.13;;;1.75;;
49828;SDS011;35723;51.194;5.112;2022-08-03T10:01:01;14.70;;;1.83;;
49828;SDS011;35723;51.194;5.112;2022-08-03T10:03:32;14.63;;;2.05;;
49828;SDS011;35723;51.194;5.112;2022-08-03T10:06:13;12.38;;;2.00;;
49828;SDS011;35723;51.194;5.112;2022-08-03T10:08:40;16.70;;;2.30;;
49828;SDS011;35723;51.194;5.112;2022-08-03T10:11:06;16.48;;;2.40;;
49828;SDS011;35723;51.194;5.112;2022-08-03T10:13:32;14.10;;;2.13;;
49828;SDS011;35723;51.194;5.112;2022-08-03T10:15:58;16.83;;;2.35;;
49828;SDS011;35723;51.194;5.112;2022-08-03T10:18:23;14.77;;;2.25;;
49828;SDS011;35723;51.194;5.112;2022-08-03T10:20:52;12.15;;;2.35;;
49828;SDS011;35723;51.194;5.112;2022-08-03T10:23:27;11.57;;;2.10;;
49828;SDS011;35723;51.194;5.112;2022-08-03T10:25:55;16.55;;;2.03;;
49828;SDS011;35723;51.194;5.112;2022-08-03T10:28:25;13.05;;;2.15;;
49828;SDS011;35723;51.194;5.112;2022-08-03T10:30:58;14.57;;;2.05;;
49828;SDS011;35723;51.194;5.112;2022-08-03T10:33:26;12.50;;;2.10;;
49828;SDS011;35723;51.194;5.112;2022-08-03T10:35:56;13.57;;;1.90;;
49828;SDS011;35723;51.194;5.112;2022-08-03T10:38:37;16.85;;;2.50;;
49828;SDS011;35723;51.194;5.112;2022-08-03T10:41:07;10.93;;;1.88;;
49828;SDS011;35723;51.194;5.112;2022-08-03T10:43:41;12.32;;;2.05;;
49828;SDS011;35723;51.194;5.112;2022-08-03T10:46:14;14.65;;;1.98;;
49828;SDS011;35723;51.194;5.112;2022-08-03T10:48:45;14.13;;;1.98;;
49828;SDS011;35723;51.194;5.112;2022-08-03T10:51:13;11.57;;;2.10;;
49828;SDS011;35723;51.194;5.112;2022-08-03T10:53:40;20.55;;;2.05;;
49828;SDS011;35723;51.194;5.112;2022-08-03T10:59:17;16.00;;;2.20;;
49828;SDS011;35723;51.194;5.112;2022-08-03T11:02:02;14.68;;;2.08;;
49828;SDS011;35723;51.194;5.112;2022-08-03T11:04:32;16.90;;;2.10;;
49828;SDS011;35723;51.194;5.112;2022-08-03T11:07:17;13.95;;;2.47;;
49828;SDS011;35723;51.194;5.112;2022-08-03T11:09:49;15.27;;;2.20;;
49828;SDS011;35723;51.194;5.112;2022-08-03T11:12:25;11.55;;;1.90;;
49828;SDS011;35723;51.194;5.112;2022-08-03T11:14:56;11.82;;;2.25;;
49828;SDS011;35723;51.194;5.112;2022-08-03T11:17:23;14.25;;;2.10;;
49828;SDS011;35723;51.194;5.112;2022-08-03T11:19:50;12.60;;;2.20;;
49828;SDS011;35723;51.194;5.112;2022-08-03T11:22:17;14.63;;;2.10;;
49828;SDS011;35723;51.194;5.112;2022-08-03T11:27:27;11.30;;;1.90;;
49828;SDS011;35723;51.194;5.112;2022-08-03T11:30:06;10.40;;;2.08;;
49828;SDS011;35723;51.194;5.112;2022-08-03T11:35:07;7.57;;;1.90;;
49828;SDS011;35723;51.194;5.112;2022-08-03T11:37:34;10.15;;;1.85;;
49828;SDS011;35723;51.194;5.112;2022-08-03T11:40:00;12.20;;;2.08;;
49828;SDS011;35723;51.194;5.112;2022-08-03T11:44:56;9.25;;;2.13;;
49828;SDS011;35723;51.194;5.112;2022-08-03T11:47:24;7.38;;;1.70;;
49828;SDS011;35723;51.194;5.112;2022-08-03T11:49:54;8.43;;;1.80;;
49828;SDS011;35723;51.194;5.112;2022-08-03T11:52:23;10.13;;;2.10;;
49828;SDS011;35723;51.194;5.112;2022-08-03T11:54:52;8.52;;;1.90;;
49828;SDS011;35723;51.194;5.112;2022-08-03T11:57:28;9.13;;;1.90;;
49828;SDS011;35723;51.194;5.112;2022-08-03T11:59:55;7.53;;;1.80;;
49828;SDS011;35723;51.194;5.112;2022-08-03T12:02:21;10.90;;;1.90;;
49828;SDS011;35723;51.194;5.112;2022-08-03T12:07:16;9.25;;;1.88;;
49828;SDS011;35723;51.194;5.112;2022-08-03T12:09:42;6.40;;;1.58;;
49828;SDS011;35723;51.194;5.112;2022-08-03T12:12:08;10.35;;;1.80;;
49828;SDS011;35723;51.194;5.112;2022-08-03T12:14:34;8.57;;;1.70;;
49828;SDS011;35723;51.194;5.112;2022-08-03T12:16:59;8.48;;;1.90;;
49828;SDS011;35723;51.194;5.112;2022-08-03T12:19:25;6.45;;;1.85;;
49828;SDS011;35723;51.194;5.112;2022-08-03T12:21:51;8.20;;;1.83;;
49828;SDS011;35723;51.194;5.112;2022-08-03T12:24:17;8.75;;;1.75;;
49828;SDS011;35723;51.194;5.112;2022-08-03T12:26:43;8.18;;;1.70;;
49828;SDS011;35723;51.194;5.112;2022-08-03T12:29:20;9.23;;;1.73;;
49828;SDS011;35723;51.194;5.112;2022-08-03T12:31:48;8.57;;;1.77;;
49828;SDS011;35723;51.194;5.112;2022-08-03T12:34:14;7.43;;;1.90;;
49828;SDS011;35723;51.194;5.112;2022-08-03T12:36:53;7.50;;;1.67;;
49828;SDS011;35723;51.194;5.112;2022-08-03T12:39:24;8.63;;;1.60;;
49828;SDS011;35723;51.194;5.112;2022-08-03T12:41:54;10.63;;;2.03;;
49828;SDS011;35723;51.194;5.112;2022-08-03T12:44:34;7.93;;;1.42;;
49828;SDS011;35723;51.194;5.112;2022-08-03T12:47:01;12.57;;;1.80;;
49828;SDS011;35723;51.194;5.112;2022-08-03T12:49:27;5.70;;;1.73;;
49828;SDS011;35723;51.194;5.112;2022-08-03T12:54:19;5.22;;;1.75;;
49828;SDS011;35723;51.194;5.112;2022-08-03T12:57:05;8.82;;;1.85;;
49828;SDS011;35723;51.194;5.112;2022-08-03T12:59:33;7.93;;;1.80;;
49828;SDS011;35723;51.194;5.112;2022-08-03T13:02:01;7.15;;;1.70;;
49828;SDS011;35723;51.194;5.112;2022-08-03T13:04:32;16.08;;;1.80;;
49828;SDS011;35723;51.194;5.112;2022-08-03T13:07:00;8.32;;;1.83;;
49828;SDS011;35723;51.194;5.112;2022-08-03T13:09:27;9.68;;;1.60;;
49828;SDS011;35723;51.194;5.112;2022-08-03T13:14:36;8.65;;;1.75;;
49828;SDS011;35723;51.194;5.112;2022-08-03T13:17:02;8.80;;;1.55;;
49828;SDS011;35723;51.194;5.112;2022-08-03T13:19:30;7.07;;;1.65;;
49828;SDS011;35723;51.194;5.112;2022-08-03T13:21:56;6.70;;;1.63;;
49828;SDS011;35723;51.194;5.112;2022-08-03T13:24:22;12.48;;;1.83;;
49828;SDS011;35723;51.194;5.112;2022-08-03T13:26:48;10.43;;;1.83;;
49828;SDS011;35723;51.194;5.112;2022-08-03T13:29:14;6.75;;;1.35;;
49828;SDS011;35723;51.194;5.112;2022-08-03T13:31:40;12.18;;;1.70;;
49828;SDS011;35723;51.194;5.112;2022-08-03T13:34:06;9.20;;;1.77;;
49828;SDS011;35723;51.194;5.112;2022-08-03T13:36:31;6.88;;;1.73;;
49828;SDS011;35723;51.194;5.112;2022-08-03T13:38:57;7.82;;;1.55;;
49828;SDS011;35723;51.194;5.112;2022-08-03T13:41:22;6.78;;;1.70;;
49828;SDS011;35723;51.194;5.112;2022-08-03T13:43:48;6.97;;;1.40;;
49828;SDS011;35723;51.194;5.112;2022-08-03T13:46:14;10.95;;;1.80;;
49828;SDS011;35723;51.194;5.112;2022-08-03T13:48:39;9.95;;;1.58;;
49828;SDS011;35723;51.194;5.112;2022-08-03T13:51:05;8.65;;;1.63;;
49828;SDS011;35723;51.194;5.112;2022-08-03T13:53:31;7.28;;;1.40;;
49828;SDS011;35723;51.194;5.112;2022-08-03T13:55:56;7.78;;;1.45;;
49828;SDS011;35723;51.194;5.112;2022-08-03T13:58:22;6.60;;;1.38;;
49828;SDS011;35723;51.194;5.112;2022-08-03T14:00:47;9.82;;;1.50;;
49828;SDS011;35723;51.194;5.112;2022-08-03T14:03:13;5.43;;;1.35;;
49828;SDS011;35723;51.194;5.112;2022-08-03T14:05:39;7.03;;;1.35;;
49828;SDS011;35723;51.194;5.112;2022-08-03T14:08:05;6.88;;;1.50;;
49828;SDS011;35723;51.194;5.112;2022-08-03T14:10:35;6.93;;;1.58;;
49828;SDS011;35723;51.194;5.112;2022-08-03T14:13:02;11.25;;;1.30;;
49828;SDS011;35723;51.194;5.112;2022-08-03T14:15:29;10.95;;;1.45;;
49828;SDS011;35723;51.194;5.112;2022-08-03T14:17:55;7.55;;;1.48;;
49828;SDS011;35723;51.194;5.112;2022-08-03T14:20:21;5.70;;;1.38;;
49828;SDS011;35723;51.194;5.112;2022-08-03T14:22:47;8.07;;;1.67;;
49828;SDS011;35723;51.194;5.112;2022-08-03T14:25:12;6.15;;;1.40;;
49828;SDS011;35723;51.194;5.112;2022-08-03T14:27:38;7.45;;;1.40;;
49828;SDS011;35723;51.194;5.112;2022-08-03T14:30:04;3.33;;;1.30;;
49828;SDS011;35723;51.194;5.112;2022-08-03T14:32:30;7.43;;;1.50;;
49828;SDS011;35723;51.194;5.112;2022-08-03T14:34:55;7.05;;;1.33;;
49828;SDS011;35723;51.194;5.112;2022-08-03T14:37:21;5.70;;;1.20;;
49828;SDS011;35723;51.194;5.112;2022-08-03T14:39:46;4.15;;;1.15;;
49828;SDS011;35723;51.194;5.112;2022-08-03T14:42:13;6.65;;;1.48;;
49828;SDS011;35723;51.194;5.112;2022-08-03T14:44:39;5.80;;;1.50;;
49828;SDS011;35723;51.194;5.112;2022-08-03T14:47:05;10.65;;;1.60;;
49828;SDS011;35723;51.194;5.112;2022-08-03T14:49:31;8.55;;;1.45;;
49828;SDS011;35723;51.194;5.112;2022-08-03T14:51:56;6.72;;;1.20;;
49828;SDS011;35723;51.194;5.112;2022-08-03T14:54:23;12.38;;;1.58;;
49828;SDS011;35723;51.194;5.112;2022-08-03T14:56:49;7.43;;;1.70;;
49828;SDS011;35723;51.194;5.112;2022-08-03T14:59:14;9.45;;;1.75;;
49828;SDS011;35723;51.194;5.112;2022-08-03T15:01:40;4.95;;;1.50;;
49828;SDS011;35723;51.194;5.112;2022-08-03T15:04:05;12.75;;;1.52;;
49828;SDS011;35723;51.194;5.112;2022-08-03T15:06:31;7.90;;;1.58;;
49828;SDS011;35723;51.194;5.112;2022-08-03T15:08:56;7.65;;;1.60;;
49828;SDS011;35723;51.194;5.112;2022-08-03T15:11:22;6.95;;;1.45;;
49828;SDS011;35723;51.194;5.112;2022-08-03T15:13:48;6.97;;;1.30;;
49828;SDS011;35723;51.194;5.112;2022-08-03T15:16:13;5.47;;;1.20;;
49828;SDS011;35723;51.194;5.112;2022-08-03T15:18:39;4.95;;;1.10;;
49828;SDS011;35723;51.194;5.112;2022-08-03T15:21:05;4.65;;;1.20;;
49828;SDS011;35723;51.194;5.112;2022-08-03T15:23:31;6.45;;;1.80;;